Pine Ridge, Indiana
Current Conditions -  °F | °C
As of 10:53 AM on Thursday 30 Oct 2014 (Local Time) from KHUF Reporting Station
Clear Clear  
Wind Chill: 46°   Ceiling: Unl
Heat Index: 46°   Visibility: 10mi
Dew Point: 36°   Wind: 3mph
Humidity: 68%   Direction: 160°SSE
Pressure: 30.18"   Gusts: NA
Location:  39.5107°N, 87.4772°W
Report Text: KHUF 301453Z 16003KT 10SM CLR 08/02 A3018 RMK AO2 SLP221 T00780022 50000
Loading
Personal Weather Stations






























Interactive Weather Map
Tropical Storm Tracking
New forecast layout! Learn more

10-Day Weather Forecast

Advertisements
Track Severe Weather on mobile